sensor_id;sensor_type;location;lat;lon;timestamp;temperature;humidity
54518;DHT22;40423;53.176;6.002;2022-12-18T00:00:57;-2.00;99.90
54518;DHT22;40423;53.176;6.002;2022-12-18T00:03:23;-2.00;99.90
54518;DHT22;40423;53.176;6.002;2022-12-18T00:05:52;-2.00;99.90
54518;DHT22;40423;53.176;6.002;2022-12-18T00:08:18;-2.00;99.90
54518;DHT22;40423;53.176;6.002;2022-12-18T00:10:45;-2.00;99.90
54518;DHT22;40423;53.176;6.002;2022-12-18T00:13:11;-2.00;99.90
54518;DHT22;40423;53.176;6.002;2022-12-18T00:15:39;-2.00;99.90
54518;DHT22;40423;53.176;6.002;2022-12-18T00:18:05;-2.00;99.90
54518;DHT22;40423;53.176;6.002;2022-12-18T00:20:35;-2.10;99.90
54518;DHT22;40423;53.176;6.002;2022-12-18T00:23:01;-2.10;99.90
54518;DHT22;40423;53.176;6.002;2022-12-18T00:25:26;-2.10;99.90
54518;DHT22;40423;53.176;6.002;2022-12-18T00:27:52;-2.20;99.90
54518;DHT22;40423;53.176;6.002;2022-12-18T00:30:18;-2.20;99.90
54518;DHT22;40423;53.176;6.002;2022-12-18T00:32:44;-2.20;99.90
54518;DHT22;40423;53.176;6.002;2022-12-18T00:35:09;-2.30;99.90
54518;DHT22;40423;53.176;6.002;2022-12-18T00:37:35;-2.30;99.90
54518;DHT22;40423;53.176;6.002;2022-12-18T00:40:01;-2.30;99.90
54518;DHT22;40423;53.176;6.002;2022-12-18T00:42:27;-2.30;99.90
54518;DHT22;40423;53.176;6.002;2022-12-18T00:45:11;-2.30;99.90
54518;DHT22;40423;53.176;6.002;2022-12-18T00:47:37;-2.40;99.90
54518;DHT22;40423;53.176;6.002;2022-12-18T00:50:03;-2.40;99.90
54518;DHT22;40423;53.176;6.002;2022-12-18T00:52:29;-2.40;99.90
54518;DHT22;40423;53.176;6.002;2022-12-18T00:54:54;-2.40;99.90
54518;DHT22;40423;53.176;6.002;2022-12-18T00:57:20;-2.40;99.90
54518;DHT22;40423;53.176;6.002;2022-12-18T00:59:46;-2.40;99.90
54518;DHT22;40423;53.176;6.002;2022-12-18T01:02:11;-2.40;99.90
54518;DHT22;40423;53.176;6.002;2022-12-18T01:04:37;-2.50;99.90
54518;DHT22;40423;53.176;6.002;2022-12-18T01:07:03;-2.40;99.90
54518;DHT22;40423;53.176;6.002;2022-12-18T01:09:28;-2.40;99.90
54518;DHT22;40423;53.176;6.002;2022-12-18T01:11:54;-2.40;99.90
54518;DHT22;40423;53.176;6.002;2022-12-18T01:14:20;-2.40;99.90
54518;DHT22;40423;53.176;6.002;2022-12-18T01:16:45;-2.40;99.90
54518;DHT22;40423;53.176;6.002;2022-12-18T01:19:11;-2.40;99.90
54518;DHT22;40423;53.176;6.002;2022-12-18T01:21:37;-2.40;99.90
54518;DHT22;40423;53.176;6.002;2022-12-18T01:24:03;-2.40;99.90
54518;DHT22;40423;53.176;6.002;2022-12-18T01:26:28;-2.40;99.90
54518;DHT22;40423;53.176;6.002;2022-12-18T01:28:58;-2.40;99.90
54518;DHT22;40423;53.176;6.002;2022-12-18T01:31:27;-2.40;99.90
54518;DHT22;40423;53.176;6.002;2022-12-18T01:33:53;-2.40;99.90
54518;DHT22;40423;53.176;6.002;2022-12-18T01:36:25;-2.40;99.90
54518;DHT22;40423;53.176;6.002;2022-12-18T01:38:52;-2.40;99.90
54518;DHT22;40423;53.176;6.002;2022-12-18T01:41:22;-2.40;99.90
54518;DHT22;40423;53.176;6.002;2022-12-18T01:43:54;-2.40;99.90
54518;DHT22;40423;53.176;6.002;2022-12-18T01:46:22;-2.40;99.90
54518;DHT22;40423;53.176;6.002;2022-12-18T01:48:55;-2.40;99.90
54518;DHT22;40423;53.176;6.002;2022-12-18T01:51:22;-2.40;99.90
54518;DHT22;40423;53.176;6.002;2022-12-18T01:53:48;-2.40;99.90
54518;DHT22;40423;53.176;6.002;2022-12-18T01:56:17;-2.40;99.90
54518;DHT22;40423;53.176;6.002;2022-12-18T01:58:54;-2.40;99.90
54518;DHT22;40423;53.176;6.002;2022-12-18T02:01:22;-2.40;99.90
54518;DHT22;40423;53.176;6.002;2022-12-18T02:03:48;-2.40;99.90
54518;DHT22;40423;53.176;6.002;2022-12-18T02:11:34;-2.50;99.90
54518;DHT22;40423;53.176;6.002;2022-12-18T02:19:35;-2.50;99.90
54518;DHT22;40423;53.176;6.002;2022-12-18T02:22:24;-2.50;99.90
54518;DHT22;40423;53.176;6.002;2022-12-18T02:27:39;-2.60;99.90
54518;DHT22;40423;53.176;6.002;2022-12-18T02:30:06;-2.60;99.90
54518;DHT22;40423;53.176;6.002;2022-12-18T02:32:51;-2.60;99.90
54518;DHT22;40423;53.176;6.002;2022-12-18T02:35:22;-2.70;99.90
54518;DHT22;40423;53.176;6.002;2022-12-18T02:37:49;-2.70;99.90
54518;DHT22;40423;53.176;6.002;2022-12-18T02:40:16;-2.80;99.90
54518;DHT22;40423;53.176;6.002;2022-12-18T02:42:42;-2.80;99.90
54518;DHT22;40423;53.176;6.002;2022-12-18T02:45:08;-2.80;99.90
54518;DHT22;40423;53.176;6.002;2022-12-18T02:47:38;-2.80;99.90
54518;DHT22;40423;53.176;6.002;2022-12-18T02:50:30;-2.80;99.90
54518;DHT22;40423;53.176;6.002;2022-12-18T02:53:17;-2.90;99.90
54518;DHT22;40423;53.176;6.002;2022-12-18T03:01:12;-3.00;99.90
54518;DHT22;40423;53.176;6.002;2022-12-18T03:06:24;-3.10;99.90
54518;DHT22;40423;53.176;6.002;2022-12-18T03:08:58;-3.10;99.90
54518;DHT22;40423;53.176;6.002;2022-12-18T03:11:24;-3.20;99.90
54518;DHT22;40423;53.176;6.002;2022-12-18T03:14:13;-3.20;99.90
54518;DHT22;40423;53.176;6.002;2022-12-18T03:16:42;-3.20;99.90
54518;DHT22;40423;53.176;6.002;2022-12-18T03:19:19;-3.20;99.90
54518;DHT22;40423;53.176;6.002;2022-12-18T03:21:57;-3.20;99.90
54518;DHT22;40423;53.176;6.002;2022-12-18T03:24:26;-3.20;99.90
54518;DHT22;40423;53.176;6.002;2022-12-18T03:26:57;-3.20;99.90
54518;DHT22;40423;53.176;6.002;2022-12-18T03:29:32;-3.30;99.90
54518;DHT22;40423;53.176;6.002;2022-12-18T03:32:06;-3.30;99.90
54518;DHT22;40423;53.176;6.002;2022-12-18T03:34:35;-3.30;99.90
54518;DHT22;40423;53.176;6.002;2022-12-18T03:37:04;-3.40;99.90
54518;DHT22;40423;53.176;6.002;2022-12-18T03:39:30;-3.40;99.90
54518;DHT22;40423;53.176;6.002;2022-12-18T03:42:26;-3.30;99.90
54518;DHT22;40423;53.176;6.002;2022-12-18T03:47:38;-3.30;99.90
54518;DHT22;40423;53.176;6.002;2022-12-18T03:50:15;-3.30;99.90
54518;DHT22;40423;53.176;6.002;2022-12-18T03:52:47;-3.40;99.90
54518;DHT22;40423;53.176;6.002;2022-12-18T03:55:14;-3.40;99.90
54518;DHT22;40423;53.176;6.002;2022-12-18T03:57:41;-3.40;99.90
54518;DHT22;40423;53.176;6.002;2022-12-18T04:00:13;-3.40;99.90
54518;DHT22;40423;53.176;6.002;2022-12-18T04:02:44;-3.40;99.90
54518;DHT22;40423;53.176;6.002;2022-12-18T04:05:12;-3.40;99.90
54518;DHT22;40423;53.176;6.002;2022-12-18T04:07:39;-3.40;99.90
54518;DHT22;40423;53.176;6.002;2022-12-18T04:10:07;-3.40;99.90
54518;DHT22;40423;53.176;6.002;2022-12-18T04:12:33;-3.40;99.90
54518;DHT22;40423;53.176;6.002;2022-12-18T04:14:58;-3.40;99.90
54518;DHT22;40423;53.176;6.002;2022-12-18T04:17:24;-3.40;99.90
54518;DHT22;40423;53.176;6.002;2022-12-18T04:19:50;-3.40;99.90
54518;DHT22;40423;53.176;6.002;2022-12-18T04:22:16;-3.50;99.90
54518;DHT22;40423;53.176;6.002;2022-12-18T04:24:42;-3.50;99.90
54518;DHT22;40423;53.176;6.002;2022-12-18T04:27:07;-3.50;99.90
54518;DHT22;40423;53.176;6.002;2022-12-18T04:29:33;-3.50;99.90
54518;DHT22;40423;53.176;6.002;2022-12-18T04:31:59;-3.50;99.90
54518;DHT22;40423;53.176;6.002;2022-12-18T04:34:24;-3.50;99.90
54518;DHT22;40423;53.176;6.002;2022-12-18T04:36:50;-3.50;99.90
54518;DHT22;40423;53.176;6.002;2022-12-18T04:39:17;-3.60;99.90
54518;DHT22;40423;53.176;6.002;2022-12-18T04:41:43;-3.60;99.90
54518;DHT22;40423;53.176;6.002;2022-12-18T04:44:09;-3.60;99.90
54518;DHT22;40423;53.176;6.002;2022-12-18T04:46:35;-3.70;99.90
54518;DHT22;40423;53.176;6.002;2022-12-18T04:49:00;-3.70;99.90
54518;DHT22;40423;53.176;6.002;2022-12-18T04:51:26;-3.70;99.90
54518;DHT22;40423;53.176;6.002;2022-12-18T04:53:53;-3.70;99.90
54518;DHT22;40423;53.176;6.002;2022-12-18T04:56:18;-3.70;99.90
54518;DHT22;40423;53.176;6.002;2022-12-18T04:58:44;-3.70;99.90
54518;DHT22;40423;53.176;6.002;2022-12-18T05:01:11;-3.70;99.90
54518;DHT22;40423;53.176;6.002;2022-12-18T05:03:38;-3.70;99.90
54518;DHT22;40423;53.176;6.002;2022-12-18T05:06:05;-3.80;99.90
54518;DHT22;40423;53.176;6.002;2022-12-18T05:08:31;-3.70;99.90
54518;DHT22;40423;53.176;6.002;2022-12-18T05:11:07;-3.80;99.90
54518;DHT22;40423;53.176;6.002;2022-12-18T05:13:34;-3.80;99.90
54518;DHT22;40423;53.176;6.002;2022-12-18T05:16:00;-3.80;99.90
54518;DHT22;40423;53.176;6.002;2022-12-18T05:18:26;-3.80;99.90
54518;DHT22;40423;53.176;6.002;2022-12-18T05:20:52;-3.80;99.90
54518;DHT22;40423;53.176;6.002;2022-12-18T05:23:19;-3.80;99.90
54518;DHT22;40423;53.176;6.002;2022-12-18T05:25:53;-3.90;99.90
54518;DHT22;40423;53.176;6.002;2022-12-18T05:28:20;-3.90;99.90
54518;DHT22;40423;53.176;6.002;2022-12-18T05:30:53;-3.90;99.90
54518;DHT22;40423;53.176;6.002;2022-12-18T05:33:20;-3.90;99.90
54518;DHT22;40423;53.176;6.002;2022-12-18T05:35:51;-3.90;99.90
54518;DHT22;40423;53.176;6.002;2022-12-18T05:38:18;-3.90;99.90
54518;DHT22;40423;53.176;6.002;2022-12-18T05:40:44;-3.90;99.90
54518;DHT22;40423;53.176;6.002;2022-12-18T05:43:10;-3.80;99.90
54518;DHT22;40423;53.176;6.002;2022-12-18T05:45:39;-3.90;99.90
54518;DHT22;40423;53.176;6.002;2022-12-18T05:48:06;-3.90;99.90
54518;DHT22;40423;53.176;6.002;2022-12-18T05:50:35;-3.90;99.90
54518;DHT22;40423;53.176;6.002;2022-12-18T05:53:01;-4.00;99.90
54518;DHT22;40423;53.176;6.002;2022-12-18T05:55:27;-4.00;99.90
54518;DHT22;40423;53.176;6.002;2022-12-18T05:57:53;-4.00;99.90
54518;DHT22;40423;53.176;6.002;2022-12-18T06:00:18;-4.00;99.90
54518;DHT22;40423;53.176;6.002;2022-12-18T06:02:47;-4.00;99.90
54518;DHT22;40423;53.176;6.002;2022-12-18T06:05:13;-4.00;99.90
54518;DHT22;40423;53.176;6.002;2022-12-18T06:07:38;-4.00;99.90
54518;DHT22;40423;53.176;6.002;2022-12-18T06:10:04;-4.10;99.90
54518;DHT22;40423;53.176;6.002;2022-12-18T06:12:31;-4.10;99.90
54518;DHT22;40423;53.176;6.002;2022-12-18T06:14:59;-4.10;99.90
54518;DHT22;40423;53.176;6.002;2022-12-18T06:17:34;-4.10;99.90
54518;DHT22;40423;53.176;6.002;2022-12-18T06:20:00;-4.10;99.90
54518;DHT22;40423;53.176;6.002;2022-12-18T06:22:26;-4.10;99.90
54518;DHT22;40423;53.176;6.002;2022-12-18T06:24:52;-4.20;99.90
54518;DHT22;40423;53.176;6.002;2022-12-18T06:27:18;-4.20;99.90
54518;DHT22;40423;53.176;6.002;2022-12-18T06:29:43;-4.20;99.90
54518;DHT22;40423;53.176;6.002;2022-12-18T06:32:09;-4.20;99.90
54518;DHT22;40423;53.176;6.002;2022-12-18T06:34:37;-4.20;99.90
54518;DHT22;40423;53.176;6.002;2022-12-18T06:37:03;-4.20;99.90
54518;DHT22;40423;53.176;6.002;2022-12-18T06:39:29;-4.30;99.90
54518;DHT22;40423;53.176;6.002;2022-12-18T06:41:55;-4.30;99.90
54518;DHT22;40423;53.176;6.002;2022-12-18T06:44:21;-4.30;99.90
54518;DHT22;40423;53.176;6.002;2022-12-18T06:46:47;-4.30;99.90
54518;DHT22;40423;53.176;6.002;2022-12-18T06:49:12;-4.30;99.90
54518;DHT22;40423;53.176;6.002;2022-12-18T06:51:41;-4.30;99.90
54518;DHT22;40423;53.176;6.002;2022-12-18T06:54:08;-4.30;99.90
54518;DHT22;40423;53.176;6.002;2022-12-18T06:56:33;-4.30;99.90
54518;DHT22;40423;53.176;6.002;2022-12-18T06:58:59;-4.40;99.90
54518;DHT22;40423;53.176;6.002;2022-12-18T07:01:25;-4.30;99.90
54518;DHT22;40423;53.176;6.002;2022-12-18T07:03:55;-4.30;99.90
54518;DHT22;40423;53.176;6.002;2022-12-18T07:06:23;-4.30;99.90
54518;DHT22;40423;53.176;6.002;2022-12-18T07:08:53;-4.30;99.90
54518;DHT22;40423;53.176;6.002;2022-12-18T07:11:19;-4.30;99.90
54518;DHT22;40423;53.176;6.002;2022-12-18T07:13:45;-4.40;99.90
54518;DHT22;40423;53.176;6.002;2022-12-18T07:16:14;-4.30;99.90
54518;DHT22;40423;53.176;6.002;2022-12-18T07:18:40;-4.30;99.90
54518;DHT22;40423;53.176;6.002;2022-12-18T07:21:10;-4.30;99.90
54518;DHT22;40423;53.176;6.002;2022-12-18T07:23:36;-4.30;99.90
54518;DHT22;40423;53.176;6.002;2022-12-18T07:26:10;-4.30;99.90
54518;DHT22;40423;53.176;6.002;2022-12-18T07:28:37;-4.30;99.90
54518;DHT22;40423;53.176;6.002;2022-12-18T07:31:11;-4.30;99.90
54518;DHT22;40423;53.176;6.002;2022-12-18T07:33:37;-4.30;99.90
54518;DHT22;40423;53.176;6.002;2022-12-18T07:36:04;-4.30;99.90
54518;DHT22;40423;53.176;6.002;2022-12-18T07:38:31;-4.30;99.90
54518;DHT22;40423;53.176;6.002;2022-12-18T07:41:05;-4.30;99.90
54518;DHT22;40423;53.176;6.002;2022-12-18T07:43:31;-4.30;99.90
54518;DHT22;40423;53.176;6.002;2022-12-18T07:45:57;-4.30;99.90
54518;DHT22;40423;53.176;6.002;2022-12-18T07:48:23;-4.30;99.90
54518;DHT22;40423;53.176;6.002;2022-12-18T07:50:49;-4.70;99.90
54518;DHT22;40423;53.176;6.002;2022-12-18T07:53:14;-4.30;99.90
54518;DHT22;40423;53.176;6.002;2022-12-18T07:55:41;-4.30;99.90
54518;DHT22;40423;53.176;6.002;2022-12-18T07:58:07;-4.30;99.90
54518;DHT22;40423;53.176;6.002;2022-12-18T08:00:33;-4.30;99.90
54518;DHT22;40423;53.176;6.002;2022-12-18T08:02:59;-4.20;99.90
54518;DHT22;40423;53.176;6.002;2022-12-18T08:05:25;-4.20;99.90
54518;DHT22;40423;53.176;6.002;2022-12-18T08:07:51;-4.20;99.90
54518;DHT22;40423;53.176;6.002;2022-12-18T08:10:17;-4.10;99.90
54518;DHT22;40423;53.176;6.002;2022-12-18T08:12:42;-4.10;99.90
54518;DHT22;40423;53.176;6.002;2022-12-18T08:15:09;-4.10;99.90
54518;DHT22;40423;53.176;6.002;2022-12-18T08:17:34;-4.10;99.90
54518;DHT22;40423;53.176;6.002;2022-12-18T08:20:00;-4.00;99.90
54518;DHT22;40423;53.176;6.002;2022-12-18T08:22:26;-4.00;99.90
54518;DHT22;40423;53.176;6.002;2022-12-18T08:24:51;-4.00;99.90
54518;DHT22;40423;53.176;6.002;2022-12-18T08:27:17;-3.90;99.90
54518;DHT22;40423;53.176;6.002;2022-12-18T08:29:43;-3.90;99.90
54518;DHT22;40423;53.176;6.002;2022-12-18T08:32:10;-3.80;99.90
54518;DHT22;40423;53.176;6.002;2022-12-18T08:34:35;-3.80;99.90
54518;DHT22;40423;53.176;6.002;2022-12-18T08:37:01;-3.80;99.90
54518;DHT22;40423;53.176;6.002;2022-12-18T08:39:27;-3.70;99.90
54518;DHT22;40423;53.176;6.002;2022-12-18T08:41:52;-3.60;99.90
54518;DHT22;40423;53.176;6.002;2022-12-18T08:44:36;-3.60;99.90
54518;DHT22;40423;53.176;6.002;2022-12-18T08:47:03;-3.50;99.90
54518;DHT22;40423;53.176;6.002;2022-12-18T08:49:29;-3.50;99.90
54518;DHT22;40423;53.176;6.002;2022-12-18T08:51:55;-3.40;99.90
54518;DHT22;40423;53.176;6.002;2022-12-18T08:54:23;-3.40;99.90
54518;DHT22;40423;53.176;6.002;2022-12-18T08:56:48;-3.30;99.90
54518;DHT22;40423;53.176;6.002;2022-12-18T08:59:16;-3.30;99.90
54518;DHT22;40423;53.176;6.002;2022-12-18T09:01:42;-3.20;99.90
54518;DHT22;40423;53.176;6.002;2022-12-18T09:04:09;-3.20;99.90
54518;DHT22;40423;53.176;6.002;2022-12-18T09:06:35;-3.10;99.90
54518;DHT22;40423;53.176;6.002;2022-12-18T09:09:03;-3.00;99.90
54518;DHT22;40423;53.176;6.002;2022-12-18T09:11:29;-3.00;99.90
54518;DHT22;40423;53.176;6.002;2022-12-18T09:13:55;-2.90;99.90
54518;DHT22;40423;53.176;6.002;2022-12-18T09:16:22;-2.80;99.90
54518;DHT22;40423;53.176;6.002;2022-12-18T09:18:48;-2.80;99.90
54518;DHT22;40423;53.176;6.002;2022-12-18T09:21:16;-2.70;99.90
54518;DHT22;40423;53.176;6.002;2022-12-18T09:23:43;-2.60;99.90
54518;DHT22;40423;53.176;6.002;2022-12-18T09:26:09;-2.50;99.90
54518;DHT22;40423;53.176;6.002;2022-12-18T09:28:35;-2.50;99.90
54518;DHT22;40423;53.176;6.002;2022-12-18T09:31:04;-2.40;99.90
54518;DHT22;40423;53.176;6.002;2022-12-18T09:33:31;-2.30;99.90
54518;DHT22;40423;53.176;6.002;2022-12-18T09:35:56;-2.20;99.90
54518;DHT22;40423;53.176;6.002;2022-12-18T09:38:22;-2.10;99.90
54518;DHT22;40423;53.176;6.002;2022-12-18T09:40:52;-2.10;99.90
54518;DHT22;40423;53.176;6.002;2022-12-18T09:43:29;-2.00;99.90
54518;DHT22;40423;53.176;6.002;2022-12-18T09:46:00;-2.00;99.90
54518;DHT22;40423;53.176;6.002;2022-12-18T09:48:36;-2.00;99.90
54518;DHT22;40423;53.176;6.002;2022-12-18T09:51:22;-1.90;99.90
54518;DHT22;40423;53.176;6.002;2022-12-18T09:53:57;-1.80;99.90
54518;DHT22;40423;53.176;6.002;2022-12-18T09:56:26;-1.80;99.90
54518;DHT22;40423;53.176;6.002;2022-12-18T09:58:58;-1.70;99.90
54518;DHT22;40423;53.176;6.002;2022-12-18T10:01:25;-1.70;99.90
54518;DHT22;40423;53.176;6.002;2022-12-18T10:03:52;-1.70;99.90
54518;DHT22;40423;53.176;6.002;2022-12-18T10:06:35;-1.70;99.90
54518;DHT22;40423;53.176;6.002;2022-12-18T10:14:42;-1.70;99.90
54518;DHT22;40423;53.176;6.002;2022-12-18T10:27:58;-1.60;99.90
54518;DHT22;40423;53.176;6.002;2022-12-18T10:30:26;-1.60;99.90
54518;DHT22;40423;53.176;6.002;2022-12-18T10:32:52;-1.60;99.90
54518;DHT22;40423;53.176;6.002;2022-12-18T10:35:24;-1.60;99.90
54518;DHT22;40423;53.176;6.002;2022-12-18T10:43:26;-1.60;99.90
54518;DHT22;40423;53.176;6.002;2022-12-18T10:46:17;-1.60;99.90
54518;DHT22;40423;53.176;6.002;2022-12-18T10:48:49;-1.50;99.90
54518;DHT22;40423;53.176;6.002;2022-12-18T10:51:36;-1.50;99.90
54518;DHT22;40423;53.176;6.002;2022-12-18T10:54:21;-1.40;99.90
54518;DHT22;40423;53.176;6.002;2022-12-18T10:56:47;-1.40;99.90
54518;DHT22;40423;53.176;6.002;2022-12-18T10:59:15;-1.30;99.90
54518;DHT22;40423;53.176;6.002;2022-12-18T11:01:47;-1.40;99.90
54518;DHT22;40423;53.176;6.002;2022-12-18T11:04:34;-1.40;99.90
54518;DHT22;40423;53.176;6.002;2022-12-18T11:07:01;-1.40;99.90
54518;DHT22;40423;53.176;6.002;2022-12-18T11:09:36;-1.50;99.90
54518;DHT22;40423;53.176;6.002;2022-12-18T11:12:04;-1.50;99.90
54518;DHT22;40423;53.176;6.002;2022-12-18T11:14:47;-1.50;99.90
54518;DHT22;40423;53.176;6.002;2022-12-18T11:19:59;-1.50;99.90
54518;DHT22;40423;53.176;6.002;2022-12-18T11:22:30;-1.40;99.90
54518;DHT22;40423;53.176;6.002;2022-12-18T11:25:18;-1.40;99.90
54518;DHT22;40423;53.176;6.002;2022-12-18T11:27:49;-1.40;99.90
54518;DHT22;40423;53.176;6.002;2022-12-18T11:30:34;-1.00;99.90
54518;DHT22;40423;53.176;6.002;2022-12-18T11:35:37;-1.30;99.90
54518;DHT22;40423;53.176;6.002;2022-12-18T11:40:48;-1.30;99.90
54518;DHT22;40423;53.176;6.002;2022-12-18T11:43:25;-1.20;99.90
54518;DHT22;40423;53.176;6.002;2022-12-18T11:45:56;-1.20;99.90
54518;DHT22;40423;53.176;6.002;2022-12-18T11:48:41;-1.20;99.90
54518;DHT22;40423;53.176;6.002;2022-12-18T11:51:15;-1.20;99.90
54518;DHT22;40423;53.176;6.002;2022-12-18T11:53:45;-1.20;99.90
54518;DHT22;40423;53.176;6.002;2022-12-18T12:07:31;-1.10;99.90
54518;DHT22;40423;53.176;6.002;2022-12-18T12:15:43;-1.10;99.90
54518;DHT22;40423;53.176;6.002;2022-12-18T12:18:46;-1.10;99.90
54518;DHT22;40423;53.176;6.002;2022-12-18T12:23:59;-1.00;99.90
54518;DHT22;40423;53.176;6.002;2022-12-18T12:26:43;-1.10;99.90
54518;DHT22;40423;53.176;6.002;2022-12-18T12:32:01;-1.00;99.90
54518;DHT22;40423;53.176;6.002;2022-12-18T12:34:45;-1.00;99.90
54518;DHT22;40423;53.176;6.002;2022-12-18T12:40:03;-0.90;99.90
54518;DHT22;40423;53.176;6.002;2022-12-18T12:42:48;-0.90;99.90
54518;DHT22;40423;53.176;6.002;2022-12-18T12:45:49;-0.90;99.90
54518;DHT22;40423;53.176;6.002;2022-12-18T12:48:33;-0.80;99.90
54518;DHT22;40423;53.176;6.002;2022-12-18T12:51:03;-0.80;99.90
54518;DHT22;40423;53.176;6.002;2022-12-18T12:53:35;-0.80;99.90
54518;DHT22;40423;53.176;6.002;2022-12-18T12:56:04;-0.70;99.90
54518;DHT22;40423;53.176;6.002;2022-12-18T13:01:41;-0.70;99.90
54518;DHT22;40423;53.176;6.002;2022-12-18T13:07:00;-0.70;99.90
54518;DHT22;40423;53.176;6.002;2022-12-18T13:09:31;-0.60;99.90
54518;DHT22;40423;53.176;6.002;2022-12-18T13:12:08;-0.60;99.90
54518;DHT22;40423;53.176;6.002;2022-12-18T13:15:13;-0.60;99.90
54518;DHT22;40423;53.176;6.002;2022-12-18T13:17:45;-0.60;99.90
54518;DHT22;40423;53.176;6.002;2022-12-18T13:20:13;-0.60;99.90
54518;DHT22;40423;53.176;6.002;2022-12-18T13:28:03;-0.50;99.90
54518;DHT22;40423;53.176;6.002;2022-12-18T13:40:58;-0.40;99.90
54518;DHT22;40423;53.176;6.002;2022-12-18T13:51:21;-0.40;99.90
54518;DHT22;40423;53.176;6.002;2022-12-18T13:56:58;-0.40;99.90
54518;DHT22;40423;53.176;6.002;2022-12-18T13:59:25;-0.40;99.90
54518;DHT22;40423;53.176;6.002;2022-12-18T14:01:58;-0.40;99.90
54518;DHT22;40423;53.176;6.002;2022-12-18T14:04:30;-0.40;99.90
54518;DHT22;40423;53.176;6.002;2022-12-18T14:09:26;-0.40;99.90
54518;DHT22;40423;53.176;6.002;2022-12-18T14:11:53;-0.40;99.90
54518;DHT22;40423;53.176;6.002;2022-12-18T14:14:43;-0.40;99.90
54518;DHT22;40423;53.176;6.002;2022-12-18T14:17:11;-0.50;99.90
54518;DHT22;40423;53.176;6.002;2022-12-18T14:19:40;-0.40;99.90
54518;DHT22;40423;53.176;6.002;2022-12-18T14:22:19;-0.40;99.90
54518;DHT22;40423;53.176;6.002;2022-12-18T14:24:46;-0.40;99.90
54518;DHT22;40423;53.176;6.002;2022-12-18T14:27:37;-0.40;99.90
54518;DHT22;40423;53.176;6.002;2022-12-18T14:35:53;-0.50;99.90
54518;DHT22;40423;53.176;6.002;2022-12-18T14:38:23;-0.50;99.90
54518;DHT22;40423;53.176;6.002;2022-12-18T14:41:06;-0.50;99.90
54518;DHT22;40423;53.176;6.002;2022-12-18T14:43:37;-0.50;99.90
54518;DHT22;40423;53.176;6.002;2022-12-18T14:46:05;-0.50;99.90
54518;DHT22;40423;53.176;6.002;2022-12-18T14:48:41;-0.50;99.90
54518;DHT22;40423;53.176;6.002;2022-12-18T14:51:20;-0.50;99.90
54518;DHT22;40423;53.176;6.002;2022-12-18T14:53:58;-0.50;99.90
54518;DHT22;40423;53.176;6.002;2022-12-18T14:56:35;-0.50;99.90
54518;DHT22;40423;53.176;6.002;2022-12-18T14:59:13;-0.60;99.90
54518;DHT22;40423;53.176;6.002;2022-12-18T15:01:46;-0.60;99.90
54518;DHT22;40423;53.176;6.002;2022-12-18T15:07:23;-0.60;99.90
54518;DHT22;40423;53.176;6.002;2022-12-18T15:12:44;-0.60;99.90
54518;DHT22;40423;53.176;6.002;2022-12-18T15:20:54;-0.60;99.90
54518;DHT22;40423;53.176;6.002;2022-12-18T15:23:36;-0.60;99.90
54518;DHT22;40423;53.176;6.002;2022-12-18T15:26:05;-0.60;99.90
54518;DHT22;40423;53.176;6.002;2022-12-18T15:28:38;-0.60;99.90
54518;DHT22;40423;53.176;6.002;2022-12-18T15:36:09;-0.60;99.90
54518;DHT22;40423;53.176;6.002;2022-12-18T15:38:35;-0.60;99.90
54518;DHT22;40423;53.176;6.002;2022-12-18T15:41:02;-0.60;99.90
54518;DHT22;40423;53.176;6.002;2022-12-18T15:43:28;-0.60;99.90
54518;DHT22;40423;53.176;6.002;2022-12-18T15:46:17;-0.60;99.90
54518;DHT22;40423;53.176;6.002;2022-12-18T15:48:51;-0.60;99.90
54518;DHT22;40423;53.176;6.002;2022-12-18T15:51:23;-0.60;99.90
54518;DHT22;40423;53.176;6.002;2022-12-18T15:53:53;-0.60;99.90
54518;DHT22;40423;53.176;6.002;2022-12-18T15:56:19;-0.60;99.90
54518;DHT22;40423;53.176;6.002;2022-12-18T15:59:12;-0.60;99.90
54518;DHT22;40423;53.176;6.002;2022-12-18T16:01:37;-0.60;99.90
54518;DHT22;40423;53.176;6.002;2022-12-18T16:04:04;-0.60;99.90
54518;DHT22;40423;53.176;6.002;2022-12-18T16:06:29;-0.60;99.90
54518;DHT22;40423;53.176;6.002;2022-12-18T16:08:55;-0.60;99.90
54518;DHT22;40423;53.176;6.002;2022-12-18T16:11:23;-0.60;99.90
54518;DHT22;40423;53.176;6.002;2022-12-18T16:14:27;-0.70;99.90
54518;DHT22;40423;53.176;6.002;2022-12-18T16:17:05;-0.60;99.90
54518;DHT22;40423;53.176;6.002;2022-12-18T16:19:31;-0.60;99.90
54518;DHT22;40423;53.176;6.002;2022-12-18T16:21:58;-0.60;99.90
54518;DHT22;40423;53.176;6.002;2022-12-18T16:24:26;-0.60;99.90
54518;DHT22;40423;53.176;6.002;2022-12-18T16:26:53;-0.60;99.90
54518;DHT22;40423;53.176;6.002;2022-12-18T16:29:20;-0.60;99.90
54518;DHT22;40423;53.176;6.002;2022-12-18T16:31:50;-0.60;99.90
54518;DHT22;40423;53.176;6.002;2022-12-18T16:36:53;-0.60;99.90
54518;DHT22;40423;53.176;6.002;2022-12-18T16:39:20;-0.60;99.90
54518;DHT22;40423;53.176;6.002;2022-12-18T16:41:47;-0.50;99.90
54518;DHT22;40423;53.176;6.002;2022-12-18T16:44:13;-0.50;99.90
54518;DHT22;40423;53.176;6.002;2022-12-18T16:46:40;-0.50;99.90
54518;DHT22;40423;53.176;6.002;2022-12-18T16:49:08;-0.50;99.90
54518;DHT22;40423;53.176;6.002;2022-12-18T16:51:35;-0.50;99.90
54518;DHT22;40423;53.176;6.002;2022-12-18T16:54:01;-0.50;99.90
54518;DHT22;40423;53.176;6.002;2022-12-18T16:56:27;-0.50;99.90
54518;DHT22;40423;53.176;6.002;2022-12-18T16:58:57;-0.50;99.90
54518;DHT22;40423;53.176;6.002;2022-12-18T17:01:24;-0.50;99.90
54518;DHT22;40423;53.176;6.002;2022-12-18T17:03:56;-0.50;99.90
54518;DHT22;40423;53.176;6.002;2022-12-18T17:06:23;-0.50;99.90
54518;DHT22;40423;53.176;6.002;2022-12-18T17:08:57;-0.50;99.90
54518;DHT22;40423;53.176;6.002;2022-12-18T17:11:25;-0.40;99.90
54518;DHT22;40423;53.176;6.002;2022-12-18T17:13:51;-0.40;99.90
54518;DHT22;40423;53.176;6.002;2022-12-18T17:16:18;-0.40;99.90
54518;DHT22;40423;53.176;6.002;2022-12-18T17:18:44;-0.40;99.90
54518;DHT22;40423;53.176;6.002;2022-12-18T17:21:10;-0.40;99.90
54518;DHT22;40423;53.176;6.002;2022-12-18T17:23:37;-0.40;99.90
54518;DHT22;40423;53.176;6.002;2022-12-18T17:26:04;-0.30;99.90
54518;DHT22;40423;53.176;6.002;2022-12-18T17:28:34;-0.40;99.90
54518;DHT22;40423;53.176;6.002;2022-12-18T17:31:00;-0.40;99.90
54518;DHT22;40423;53.176;6.002;2022-12-18T17:33:26;-0.40;99.90
54518;DHT22;40423;53.176;6.002;2022-12-18T17:35:57;-0.30;99.90
54518;DHT22;40423;53.176;6.002;2022-12-18T17:38:24;-0.30;99.90
54518;DHT22;40423;53.176;6.002;2022-12-18T17:40:49;-0.30;99.90
54518;DHT22;40423;53.176;6.002;2022-12-18T17:43:15;-0.30;99.90
54518;DHT22;40423;53.176;6.002;2022-12-18T17:45:41;-0.30;99.90
54518;DHT22;40423;53.176;6.002;2022-12-18T17:48:07;-0.30;99.90
54518;DHT22;40423;53.176;6.002;2022-12-18T17:50:33;-0.30;99.90
54518;DHT22;40423;53.176;6.002;2022-12-18T17:52:59;-0.30;99.90
54518;DHT22;40423;53.176;6.002;2022-12-18T17:55:26;-0.30;99.90
54518;DHT22;40423;53.176;6.002;2022-12-18T17:57:54;-0.30;99.90
54518;DHT22;40423;53.176;6.002;2022-12-18T18:00:20;-0.30;99.90
54518;DHT22;40423;53.176;6.002;2022-12-18T18:02:46;-0.20;99.90
54518;DHT22;40423;53.176;6.002;2022-12-18T18:05:12;-0.20;99.90